createdAt,value
2023-05-13T00:00:20.446Z,11.79
2023-05-13T00:03:18.702Z,11.74
2023-05-13T00:06:11.750Z,11.71
2023-05-13T00:09:07.805Z,11.66
2023-05-13T00:11:46.172Z,11.63
2023-05-13T00:14:43.453Z,11.61
2023-05-13T00:17:38.857Z,11.57
2023-05-13T00:20:31.790Z,11.56
2023-05-13T00:23:17.074Z,11.51
2023-05-13T00:26:01.803Z,11.48
2023-05-13T00:28:46.460Z,11.46
2023-05-13T00:31:38.113Z,11.42
2023-05-13T00:34:16.112Z,11.39
2023-05-13T00:36:56.506Z,11.37
2023-05-13T00:39:41.951Z,11.35
2023-05-13T00:42:41.275Z,11.27
2023-05-13T00:45:18.319Z,11.24
2023-05-13T00:48:05.071Z,11.20
2023-05-13T00:51:02.150Z,11.16
2023-05-13T00:54:01.770Z,11.12
2023-05-13T00:56:56.525Z,11.07
2023-05-13T00:59:47.708Z,11.05
2023-05-13T01:03:03.353Z,11.01
2023-05-13T01:06:07.587Z,10.97
2023-05-13T01:09:14.605Z,10.95
2023-05-13T01:12:22.735Z,10.90
2023-05-13T01:15:33.785Z,10.89
2023-05-13T01:18:41.126Z,10.86
2023-05-13T01:21:44.881Z,10.84
2023-05-13T01:24:52.712Z,10.83
2023-05-13T01:31:23.765Z,10.77
2023-05-13T01:34:36.985Z,10.74
2023-05-13T01:37:44.064Z,10.71
2023-05-13T01:40:55.823Z,10.69
2023-05-13T01:46:45.467Z,10.63
2023-05-13T01:49:36.574Z,10.62
2023-05-13T01:52:21.661Z,10.58
2023-05-13T01:55:09.066Z,10.55
2023-05-13T01:58:07.014Z,10.50
2023-05-13T02:00:52.626Z,10.44
2023-05-13T02:03:42.477Z,10.39
2023-05-13T02:06:17.187Z,10.34
2023-05-13T02:08:47.471Z,10.32
2023-05-13T02:11:16.909Z,10.29
2023-05-13T02:13:46.254Z,10.27
2023-05-13T02:16:20.456Z,10.27
2023-05-13T02:18:49.850Z,10.25
2023-05-13T02:21:19.492Z,10.22
2023-05-13T02:23:49.032Z,10.19
2023-05-13T02:26:18.338Z,10.20
2023-05-13T02:28:51.203Z,10.16
2023-05-13T02:32:29.070Z,10.13
2023-05-13T02:34:34.015Z,10.09
2023-05-13T02:37:26.720Z,10.07
2023-05-13T02:40:13.684Z,10.06
2023-05-13T02:43:03.379Z,10.04
2023-05-13T02:46:02.516Z,10.02
2023-05-13T02:49:03.836Z,9.99
2023-05-13T02:51:49.617Z,9.95
2023-05-13T02:54:44.493Z,9.92
2023-05-13T02:57:17.511Z,9.90
2023-05-13T02:59:57.145Z,9.90
2023-05-13T03:02:42.317Z,9.89
2023-05-13T03:05:23.112Z,9.88
2023-05-13T03:08:07.552Z,9.85
2023-05-13T03:11:08.876Z,9.82
2023-05-13T03:13:55.965Z,9.80
2023-05-13T03:16:27.273Z,9.77
2023-05-13T03:19:18.696Z,9.75
2023-05-13T03:22:00.795Z,9.73
2023-05-13T03:25:13.460Z,9.70
2023-05-13T03:28:03.644Z,9.69
2023-05-13T03:30:36.659Z,9.70
2023-05-13T03:33:16.960Z,9.73
2023-05-13T03:36:09.106Z,9.75
2023-05-13T03:39:06.624Z,9.78
2023-05-13T03:41:56.016Z,9.81
2023-05-13T03:44:32.988Z,9.85
2023-05-13T03:47:02.630Z,9.92
2023-05-13T03:49:32.081Z,9.99
2023-05-13T03:52:03.157Z,10.05
2023-05-13T03:54:47.595Z,10.12
2023-05-13T03:57:27.382Z,10.20
2023-05-13T04:00:01.478Z,10.29
2023-05-13T04:02:40.873Z,10.38
2023-05-13T04:05:20.170Z,10.45
2023-05-13T04:07:58.135Z,10.51
2023-05-13T04:10:32.394Z,10.61
2023-05-13T04:13:04.597Z,10.71
2023-05-13T04:15:34.000Z,10.80
2023-05-13T04:18:07.789Z,10.89
2023-05-13T04:20:40.274Z,11.01
2023-05-13T04:23:10.541Z,11.16
2023-05-13T04:25:41.281Z,11.31
2023-05-13T04:28:13.032Z,11.49
2023-05-13T04:30:45.366Z,11.66
2023-05-13T04:33:14.849Z,11.91
2023-05-13T04:35:47.404Z,12.22
2023-05-13T04:38:18.136Z,12.60
2023-05-13T04:40:51.794Z,12.94
2023-05-13T04:43:26.389Z,13.39
2023-05-13T04:46:14.973Z,13.88
2023-05-13T04:49:16.659Z,14.15
2023-05-13T04:52:07.217Z,14.41
2023-05-13T04:54:58.551Z,14.77
2023-05-13T04:57:56.753Z,15.13
2023-05-13T05:00:37.632Z,15.42
2023-05-13T05:03:55.373Z,15.53
2023-05-13T05:06:36.240Z,15.73
2023-05-13T05:09:35.614Z,16.00
2023-05-13T05:12:11.946Z,16.29
2023-05-13T05:15:16.076Z,16.44
2023-05-13T05:17:51.380Z,16.79
2023-05-13T05:20:33.046Z,17.10
2023-05-13T05:23:13.272Z,17.38
2023-05-13T05:26:11.147Z,17.58
2023-05-13T05:29:18.253Z,17.81
2023-05-13T05:32:11.944Z,18.08
2023-05-13T05:35:12.169Z,18.38
2023-05-13T05:37:47.135Z,18.38
2023-05-13T05:40:22.384Z,18.33
2023-05-13T05:43:21.132Z,18.53
2023-05-13T05:46:08.685Z,18.69
2023-05-13T05:48:59.111Z,18.73
2023-05-13T05:51:51.712Z,18.64
2023-05-13T05:54:36.614Z,18.80
2023-05-13T05:57:33.607Z,19.00
2023-05-13T06:00:04.582Z,18.92
2023-05-13T06:03:00.283Z,19.03
2023-05-13T06:05:52.486Z,19.32
2023-05-13T06:08:39.599Z,19.24
2023-05-13T06:11:22.731Z,19.08
2023-05-13T06:14:01.550Z,19.02
2023-05-13T06:16:48.360Z,19.15
2023-05-13T06:19:45.986Z,19.23
2023-05-13T06:22:35.438Z,19.15
2023-05-13T06:25:11.724Z,19.08
2023-05-13T06:27:50.072Z,19.30
2023-05-13T06:30:35.467Z,19.52
2023-05-13T06:33:08.930Z,19.91
2023-05-13T06:35:52.014Z,20.28
2023-05-13T06:38:27.136Z,20.55
2023-05-13T06:41:02.444Z,20.91
2023-05-13T06:43:35.417Z,21.12
2023-05-13T06:46:18.260Z,21.15
2023-05-13T06:48:47.549Z,21.13
2023-05-13T06:51:17.454Z,21.06
2023-05-13T06:53:47.347Z,21.06
2023-05-13T06:56:16.465Z,21.09
2023-05-13T06:58:46.189Z,21.01
2023-05-13T07:01:16.748Z,21.04
2023-05-13T07:03:46.399Z,21.10
2023-05-13T07:06:15.679Z,21.19
2023-05-13T07:08:45.368Z,21.21
2023-05-13T07:11:14.838Z,21.24
2023-05-13T07:13:44.946Z,21.48
2023-05-13T07:16:24.719Z,21.65
2023-05-13T07:19:08.198Z,21.51
2023-05-13T07:21:53.619Z,21.63
2023-05-13T07:24:28.741Z,22.09
2023-05-13T07:27:04.184Z,22.45
2023-05-13T07:29:41.748Z,22.37
2023-05-13T07:32:19.268Z,22.45
2023-05-13T07:34:54.845Z,22.54
2023-05-13T07:37:40.096Z,22.75
2023-05-13T07:40:25.095Z,22.81
2023-05-13T07:42:57.989Z,22.71
2023-05-13T07:45:39.622Z,22.69
2023-05-13T07:48:28.691Z,22.71
2023-05-13T07:51:03.772Z,22.93
2023-05-13T07:53:37.295Z,23.28
2023-05-13T07:56:14.863Z,23.36
2023-05-13T07:58:55.786Z,23.47
2023-05-13T08:01:30.806Z,23.64
2023-05-13T08:04:18.138Z,23.55
2023-05-13T08:07:47.836Z,23.52
2023-05-13T08:10:27.701Z,23.53
2023-05-13T08:13:50.379Z,23.31
2023-05-13T08:17:11.723Z,23.25
2023-05-13T08:20:22.338Z,23.20
2023-05-13T08:23:17.973Z,23.27
2023-05-13T08:26:06.569Z,23.30
2023-05-13T08:28:58.893Z,23.12
2023-05-13T08:31:34.605Z,23.00
2023-05-13T08:34:07.174Z,23.46
2023-05-13T08:37:05.118Z,23.80
2023-05-13T08:39:40.491Z,24.01
2023-05-13T08:42:13.973Z,24.31
2023-05-13T08:45:02.109Z,24.40
2023-05-13T08:47:58.103Z,24.10
2023-05-13T08:50:31.696Z,23.65
2023-05-13T08:53:01.233Z,23.31
2023-05-13T08:55:35.724Z,23.36
2023-05-13T08:58:08.074Z,23.19
2023-05-13T09:00:37.608Z,22.88
2023-05-13T09:03:07.578Z,22.89
2023-05-13T09:05:38.760Z,23.11
2023-05-13T09:08:12.356Z,23.10
2023-05-13T09:10:46.704Z,23.12
2023-05-13T09:13:37.802Z,23.15
2023-05-13T09:16:15.234Z,22.96
2023-05-13T09:19:30.526Z,22.69
2023-05-13T09:22:35.593Z,22.51
2023-05-13T09:25:13.122Z,22.80
2023-05-13T09:27:51.909Z,23.17
2023-05-13T09:30:23.111Z,23.69
2023-05-13T09:33:16.364Z,24.01
2023-05-13T09:35:54.745Z,24.15
2023-05-13T09:38:32.614Z,24.06
2023-05-13T09:41:19.986Z,24.11
2023-05-13T09:47:59.805Z,23.63
2023-05-13T09:51:15.612Z,23.47
2023-05-13T09:54:09.197Z,23.43
2023-05-13T09:57:02.901Z,23.33
2023-05-13T09:59:48.523Z,23.29
2023-05-13T10:02:33.020Z,23.32
2023-05-13T10:05:10.429Z,23.52
2023-05-13T10:07:40.520Z,23.52
2023-05-13T10:10:12.148Z,23.59
2023-05-13T10:12:43.248Z,23.69
2023-05-13T10:15:12.999Z,23.64
2023-05-13T10:17:43.044Z,23.46
2023-05-13T10:20:13.284Z,23.11
2023-05-13T10:22:46.155Z,22.81
2023-05-13T10:25:27.371Z,23.00
2023-05-13T10:28:08.833Z,22.93
2023-05-13T10:30:45.543Z,22.72
2023-05-13T10:33:32.726Z,22.44
2023-05-13T10:36:59.531Z,22.32
2023-05-13T10:39:51.925Z,21.98
2023-05-13T10:42:56.817Z,21.77
2023-05-13T10:45:27.756Z,21.79
2023-05-13T10:47:57.336Z,21.89
2023-05-13T10:50:33.910Z,21.96
2023-05-13T10:53:27.118Z,21.82
2023-05-13T10:56:03.751Z,21.57
2023-05-13T10:58:44.950Z,21.40
2023-05-13T11:01:32.290Z,21.26
2023-05-13T11:04:06.159Z,21.18
2023-05-13T11:06:41.406Z,21.22
2023-05-13T11:09:38.222Z,21.28
2023-05-13T11:12:15.376Z,21.35
2023-05-13T11:14:45.059Z,21.35
2023-05-13T11:17:20.093Z,21.27
2023-05-13T11:19:54.161Z,21.22
2023-05-13T11:22:24.476Z,21.33
2023-05-13T11:25:09.895Z,21.36
2023-05-13T11:27:43.021Z,21.27
2023-05-13T11:30:27.597Z,21.28
2023-05-13T11:33:14.270Z,21.31
2023-05-13T11:35:57.394Z,21.32
2023-05-13T11:38:36.345Z,21.41
2023-05-13T11:41:19.637Z,21.49
2023-05-13T11:44:07.387Z,21.57
2023-05-13T11:46:51.664Z,21.65
2023-05-13T11:49:35.116Z,21.69
2023-05-13T11:52:15.887Z,21.65
2023-05-13T11:54:58.057Z,21.54
2023-05-13T11:57:32.964Z,21.46
2023-05-13T12:00:10.589Z,21.34
2023-05-13T12:02:40.897Z,21.36
2023-05-13T12:05:12.776Z,21.51
2023-05-13T12:07:42.477Z,21.60
2023-05-13T12:10:13.675Z,21.44
2023-05-13T12:13:00.579Z,21.41
2023-05-13T12:15:40.498Z,21.50
2023-05-13T12:18:14.254Z,21.57
2023-05-13T12:20:45.737Z,21.54
2023-05-13T12:23:26.763Z,21.51
2023-05-13T12:26:27.605Z,21.58
2023-05-13T12:29:00.514Z,21.60
2023-05-13T12:31:31.564Z,21.60
2023-05-13T12:34:30.957Z,21.60
2023-05-13T12:37:13.831Z,21.54
2023-05-13T12:40:47.661Z,21.41
2023-05-13T12:43:25.394Z,21.20
2023-05-13T12:46:14.809Z,21.25
2023-05-13T12:49:03.715Z,21.39
2023-05-13T12:51:57.165Z,21.65
2023-05-13T12:55:13.258Z,21.91
2023-05-13T12:58:07.727Z,21.90
2023-05-13T13:00:50.130Z,21.83
2023-05-13T13:03:35.960Z,21.80
2023-05-13T13:06:22.410Z,21.82
2023-05-13T13:09:18.689Z,21.90
2023-05-13T13:11:58.921Z,21.99
2023-05-13T13:14:39.089Z,22.04
2023-05-13T13:17:12.993Z,22.08
2023-05-13T13:19:49.216Z,22.09
2023-05-13T13:22:21.691Z,22.17
2023-05-13T13:25:04.411Z,22.21
2023-05-13T13:27:50.828Z,22.11
2023-05-13T13:30:36.809Z,21.93
2023-05-13T13:33:26.864Z,21.81
2023-05-13T13:40:44.776Z,21.81
2023-05-13T13:43:32.124Z,21.87
2023-05-13T13:46:23.190Z,21.91
2023-05-13T13:49:28.399Z,21.94
2023-05-13T13:52:12.513Z,21.97
2023-05-13T13:54:57.546Z,21.93
2023-05-13T13:57:42.591Z,21.88
2023-05-13T14:00:17.064Z,21.86
2023-05-13T14:02:58.239Z,21.82
2023-05-13T14:05:34.209Z,21.78
2023-05-13T14:08:14.154Z,21.63
2023-05-13T14:10:53.896Z,21.60
2023-05-13T14:14:11.487Z,21.65
2023-05-13T14:16:59.742Z,21.70
2023-05-13T14:19:39.396Z,21.69
2023-05-13T14:22:12.473Z,21.62
2023-05-13T14:24:56.870Z,21.52
2023-05-13T14:27:36.776Z,21.45
2023-05-13T14:30:15.364Z,21.40
2023-05-13T14:32:54.037Z,21.35
2023-05-13T14:35:40.642Z,21.36
2023-05-13T14:38:17.710Z,21.42
2023-05-13T14:41:01.973Z,21.51
2023-05-13T14:43:40.291Z,21.59
2023-05-13T14:46:13.333Z,21.64
2023-05-13T14:49:05.271Z,21.71
2023-05-13T14:51:59.301Z,21.75
2023-05-13T14:54:39.476Z,21.68
2023-05-13T14:57:21.494Z,21.45
2023-05-13T15:00:16.332Z,21.37
2023-05-13T15:03:00.354Z,21.31
2023-05-13T15:05:58.936Z,21.22
2023-05-13T15:08:35.497Z,21.11
2023-05-13T15:11:36.750Z,21.05
2023-05-13T15:14:33.290Z,21.00
2023-05-13T15:17:09.716Z,21.01
2023-05-13T15:20:09.221Z,20.99
2023-05-13T15:22:49.638Z,20.97
2023-05-13T15:25:22.119Z,21.00
2023-05-13T15:27:52.912Z,21.09
2023-05-13T15:30:37.273Z,21.18
2023-05-13T15:33:21.211Z,21.29
2023-05-13T15:36:15.152Z,21.39
2023-05-13T15:39:13.061Z,21.52
2023-05-13T15:42:18.974Z,21.70
2023-05-13T15:44:59.089Z,21.81
2023-05-13T15:47:37.747Z,21.87
2023-05-13T15:50:28.363Z,21.80
2023-05-13T15:53:10.027Z,21.69
2023-05-13T15:56:02.380Z,21.63
2023-05-13T15:58:44.094Z,21.51
2023-05-13T16:01:40.632Z,21.39
2023-05-13T16:04:36.797Z,21.24
2023-05-13T16:07:14.289Z,21.07
2023-05-13T16:09:58.546Z,20.96
2023-05-13T16:12:46.005Z,20.90
2023-05-13T16:15:20.712Z,20.79
2023-05-13T16:18:18.062Z,20.73
2023-05-13T16:20:57.483Z,20.68
2023-05-13T16:23:48.608Z,20.65
2023-05-13T16:26:36.853Z,20.61
2023-05-13T16:29:35.989Z,20.58
2023-05-13T16:32:24.630Z,20.59
2023-05-13T16:35:26.917Z,20.60
2023-05-13T16:38:09.645Z,20.56
2023-05-13T16:41:21.731Z,20.49
2023-05-13T16:44:23.243Z,20.46
2023-05-13T16:47:13.480Z,20.52
2023-05-13T16:50:04.327Z,20.55
2023-05-13T16:59:29.035Z,20.57
2023-05-13T17:02:14.100Z,20.59
2023-05-13T17:05:16.839Z,20.60
2023-05-13T17:08:17.552Z,20.61
2023-05-13T17:11:14.158Z,20.52
2023-05-13T17:14:11.987Z,20.45
2023-05-13T17:17:06.489Z,20.38
2023-05-13T17:19:58.519Z,20.33
2023-05-13T17:22:59.855Z,20.25
2023-05-13T17:25:43.296Z,20.19
2023-05-13T17:28:53.048Z,20.15
2023-05-13T17:32:13.108Z,20.12
2023-05-13T17:34:57.188Z,20.12
2023-05-13T17:37:37.135Z,20.11
2023-05-13T17:40:31.112Z,20.03
2023-05-13T17:43:19.198Z,19.97
2023-05-13T17:46:09.718Z,19.89
2023-05-13T17:48:41.707Z,19.82
2023-05-13T17:51:15.621Z,19.74
2023-05-13T17:54:11.450Z,19.67
2023-05-13T17:56:46.659Z,19.56
2023-05-13T17:59:59.391Z,19.45
2023-05-13T18:02:37.289Z,19.39
2023-05-13T18:05:12.278Z,19.33
2023-05-13T18:07:51.234Z,19.27
2023-05-13T18:10:45.566Z,19.21
2023-05-13T18:16:23.132Z,19.06
2023-05-13T18:19:10.235Z,19.04
2023-05-13T18:26:36.033Z,18.91
2023-05-13T18:39:47.949Z,18.56
2023-05-13T18:42:56.616Z,18.41
2023-05-13T18:45:49.342Z,18.33
2023-05-13T18:49:07.360Z,18.24
2023-05-13T18:52:53.872Z,18.13
2023-05-13T19:03:33.097Z,17.63
2023-05-13T19:06:33.041Z,17.44
2023-05-13T19:13:22.153Z,17.12
2023-05-13T19:17:24.703Z,16.96
2023-05-13T19:21:23.175Z,16.76
2023-05-13T19:24:12.082Z,16.57
2023-05-13T19:28:01.904Z,16.43
2023-05-13T19:31:45.282Z,16.25
2023-05-13T19:34:47.470Z,16.10
2023-05-13T19:38:21.420Z,15.94
2023-05-13T19:41:37.064Z,15.80
2023-05-13T19:44:56.420Z,15.67
2023-05-13T19:47:42.428Z,15.55
2023-05-13T19:58:41.228Z,15.18
2023-05-13T20:05:26.493Z,14.96
2023-05-13T20:08:25.574Z,14.89
2023-05-13T20:11:21.802Z,14.83
2023-05-13T20:14:49.804Z,14.75
2023-05-13T20:17:58.461Z,14.65
2023-05-13T20:20:45.541Z,14.56
2023-05-13T20:23:48.732Z,14.49
2023-05-13T20:27:00.328Z,14.41
2023-05-13T20:30:25.623Z,14.33
2023-05-13T20:33:30.292Z,14.24
2023-05-13T20:36:23.741Z,14.14
2023-05-13T20:39:24.447Z,14.06
2023-05-13T20:42:12.624Z,13.99
2023-05-13T20:45:04.225Z,13.92
2023-05-13T20:48:10.560Z,13.85
2023-05-13T20:50:55.071Z,13.77
2023-05-13T20:53:44.005Z,13.68
2023-05-13T20:56:20.214Z,13.63
2023-05-13T20:58:54.690Z,13.58
2023-05-13T21:01:32.848Z,13.52
2023-05-13T21:04:17.635Z,13.47
2023-05-13T21:07:01.358Z,13.40
2023-05-13T21:10:16.609Z,13.33
2023-05-13T21:13:14.755Z,13.24
2023-05-13T21:16:22.008Z,13.15
2023-05-13T21:22:49.786Z,13.04
2023-05-13T21:25:48.397Z,12.98
2023-05-13T21:29:04.211Z,12.94
2023-05-13T21:31:50.695Z,12.86
2023-05-13T21:34:52.469Z,12.81
2023-05-13T21:40:58.951Z,12.68
2023-05-13T21:47:20.110Z,12.70
2023-05-13T21:50:24.378Z,12.70
2023-05-13T21:53:48.418Z,12.67
2023-05-13T21:57:04.686Z,12.62
2023-05-13T21:59:49.970Z,12.58
2023-05-13T22:03:09.702Z,12.55
2023-05-13T22:06:15.396Z,12.49
2023-05-13T22:13:12.609Z,12.40
2023-05-13T22:15:48.335Z,12.32
2023-05-13T22:18:40.786Z,12.26
2023-05-13T22:22:11.526Z,12.19
2023-05-13T22:25:06.424Z,12.16
2023-05-13T22:27:54.429Z,12.14
2023-05-13T22:30:36.069Z,12.13
2023-05-13T22:33:17.284Z,12.11
2023-05-13T22:35:59.510Z,12.08
2023-05-13T22:38:45.561Z,12.03
2023-05-13T22:42:06.788Z,11.96
2023-05-13T22:44:49.255Z,11.87
2023-05-13T22:47:31.178Z,11.83
2023-05-13T22:50:56.669Z,11.81
2023-05-13T22:54:52.058Z,11.76
2023-05-13T22:57:34.937Z,11.71
2023-05-13T23:00:35.656Z,11.68
2023-05-13T23:03:40.340Z,11.64
2023-05-13T23:06:28.380Z,11.61
2023-05-13T23:09:37.728Z,11.55
2023-05-13T23:12:40.016Z,11.50
2023-05-13T23:15:26.478Z,11.47
2023-05-13T23:18:08.791Z,11.44
2023-05-13T23:21:28.788Z,11.42
2023-05-13T23:24:31.086Z,11.38
2023-05-13T23:27:16.471Z,11.37
2023-05-13T23:30:52.212Z,11.35
2023-05-13T23:33:57.149Z,11.29
2023-05-13T23:37:24.042Z,11.24
2023-05-13T23:40:32.034Z,11.16
2023-05-13T23:43:44.533Z,11.13
2023-05-13T23:49:55.872Z,11.04
2023-05-13T23:52:45.935Z,11.03
2023-05-13T23:56:53.204Z,11.00
2023-05-13T23:58:51.407Z,10.96
